首页
METAR-TAF:

METAR-TAF

机场 :

索尔诺克, 匈牙利

纬度: 47-07N, 经度: 020-14E, 海拔: 89米

当前天气观测

该预报发布于30分钟前的16:15 UTC
风速2节,风向西北
温度 25°C
湿度 34%
气压 1012 hPa
能见度10公里或以上
1500米以下无云,无积雨云

METAR: LHSN 151615Z 32002KT CAVOK 25/08 Q1012 NOSIG RMK BLU

时间: 18:45 (16:45 UTC)

预报

该预报发布于2小时和30分钟前的14:15 UTC
预报有效从15日的 15点(UTC)到 15日的 24点(UTC)
风速3节,风向多变
能见度10公里或以上
1500米以下无云,无积雨云

TAF: LHSN 151415Z 1515/1524 VRB03KT CAVOK

超过4000个机场的气象观测和天气预报(METAR&TAF报告)。

可查询的气象台以黄色和红色小点在地图上表示。

将鼠标移到小点上方,可查看气象台名称。

然后点击查看天气观测和预报。

如需切换地图:点击带黑十字的绿色按钮放大地图;点击带横线的绿色按钮缩小地图;或者点击绿色箭头查看邻近地区的地图。


METAR-TAF: